Flight Track Log - Related Links

Times and Time Zones

All times are in EDT time to prevent confusion due to time zone crossing. See the ACA90 flight status page for this flight to view local times or setup timezone preferences in your user account.

Time Position Orientation Groundspeed Altitude Reporting Facility
EDT Latitude Longitude Course Direction KTS MPH feet Rate Location/Type
Fri 12:11:53 AM 43.7000 -79.5833 149° Southeast 190 219 2,100  Level Toronto Center
Fri 12:12:53 AM 43.7500 -79.5333 36° Northeast 240 276 3,500 2,000 Climbing Toronto Center
Fri 12:13:53 AM 43.7833 -79.4667 55° Northeast 270 311 6,100 2,800 Climbing Toronto Center
Fri 12:14:53 AM 43.7333 -79.3833 130° Southeast 290 334 9,100 2,450 Climbing Toronto Center
Fri 12:15:00 AM 43.0315 -79.0897 124° Southeast  Level Estimated
Fri 12:15:53 AM 43.6833 -79.2833 125° Southeast 310 357 11,000  Level Toronto Center
Fri 12:16:00 AM 42.9236 -79.0006 149° Southeast  Level Estimated
Fri 12:16:53 AM 43.6167 -79.2000 138° Southeast 340 391 12,500  Level Toronto Center
Fri 12:17:00 AM 42.8157 -78.9119 149° Southeast  Level Estimated
Fri 12:17:53 AM 43.5333 -79.0833 135° Southeast 400 460 14,100  Level Toronto Center
Fri 12:18:53 AM 43.4500 -78.9500 131° Southeast 420 483 16,600 2,300 Climbing Toronto Center
Fri 12:19:53 AM 43.3833 -78.8000 121° Southeast 450 518 18,700 1,977 Climbing Toronto Center
Fri 12:20:21 AM 43.3694 -78.7783 131° Southeast 446 513 19,500 1,909 Climbing Cleveland Center
Fri 12:21:21 AM 43.2961 -78.6294 124° Southeast 460 529 21,500 1,950 Climbing Cleveland Center
Fri 12:22:21 AM 43.2186 -78.4836 126° Southeast 470 541 23,400 1,750 Climbing Cleveland Center
Fri 12:23:21 AM 43.1386 -78.3269 125° Southeast 487 560 25,000 1,900 Climbing Cleveland Center
Fri 12:24:21 AM 43.0625 -78.1736 124° Southeast 492 566 27,200 1,950 Climbing Cleveland Center
Fri 12:25:21 AM 42.9819 -78.0206 126° Southeast 492 566 28,900 1,550 Climbing Cleveland Center
Fri 12:26:21 AM 42.8950 -77.8539 125° Southeast 492 566 30,300 824 Climbing Cleveland Center
Fri 12:27:54 AM 42.7667 -77.5833 123° Southeast 510 587 31,000 275 Climbing Toronto Center
Fri 12:28:54 AM 42.6833 -77.4333 127° Southeast 500 575 31,000  Level Toronto Center
Fri 12:29:54 AM 42.6000 -77.2833 127° Southeast 510 587 31,000  Level Toronto Center
Fri 12:30:54 AM 42.5167 -77.1167 124° Southeast 510 587 31,000  Level Toronto Center
Fri 12:31:54 AM 42.4333 -76.9667 127° Southeast 510 587 31,000 150 Level Toronto Center
Fri 12:32:54 AM 42.3500 -76.8167 127° Southeast 510 587 31,300 611 Climbing Toronto Center
Fri 12:33:42 AM 42.3047 -76.7314 126° Southeast 510 587 32,100 936 Climbing New York Center
Fri 12:34:43 AM 42.2189 -76.5753 127° Southeast 510 587 33,000 446 Climbing New York Center
Fri 12:35:43 AM 42.1367 -76.4200 125° Southeast 505 581 33,000  Level New York Center
Fri 12:36:41 AM 42.0522 -76.2675 127° Southeast 505 581 33,000  Level New York Center
Fri 12:37:42 AM 41.9697 -76.1128 126° Southeast 505 581 33,000  Level New York Center
Fri 12:38:41 AM 41.8850 -75.9611 127° Southeast 505 581 33,000  Level New York Center
Fri 12:39:42 AM 41.8000 -75.8069 126° Southeast 505 581 33,000  Level New York Center
Fri 12:40:41 AM 41.7167 -75.6561 126° Southeast 505 581 33,000  Level New York Center
Fri 12:41:41 AM 41.6314 -75.5000 126° Southeast 505 581 33,000  Level New York Center
Fri 12:42:40 AM 41.5436 -75.3497 128° Southeast 510 587 33,000  Level New York Center
Fri 12:43:42 AM 41.4597 -75.2000 127° Southeast 510 587 33,000  Level New York Center
Fri 12:44:41 AM 41.3758 -75.0481 126° Southeast 505 581 33,000  Level New York Center
Fri 12:50:29 AM 40.8516 -74.1710 126° Southeast 507 583 33,000  Level FlightAware ADS-B
Fri 12:51:03 AM 40.8025 -74.0873 128° Southeast 508 585 33,000  Level FlightAware ADS-B
Fri 12:52:15 AM 40.7172 -73.9161 128° Southeast 509 586 33,000  Level Boston Center
Fri 12:53:15 AM 40.6294 -73.7664 128° Southeast 509 586 33,000  Level Boston Center
Fri 12:54:15 AM 40.5519 -73.6308 127° Southeast 524 603 33,000  Level Boston Center
Fri 12:55:15 AM 40.4800 -73.5122 129° Southeast 524 603 33,000  Level Boston Center
Fri 12:56:15 AM 40.3733 -73.3472 130° Southeast 518 596 33,000  Level Boston Center
Fri 12:56:42 AM 40.3328 -73.2950 136° Southeast 510 587 33,000  Level New York Center
Fri 12:57:40 AM 40.2250 -73.1686 138° Southeast 483 556 33,000  Level New York Center
Fri 12:58:40 AM 40.1231 -73.0458 137° Southeast 499 574 33,000  Level New York Center
Fri 12:59:43 AM 40.0194 -72.9150 136° Southeast 510 587 33,000  Level New York Center
Fri 01:00:40 AM 39.9133 -72.7872 137° Southeast 510 587 33,000  Level New York Center
Fri 01:01:43 AM 39.8092 -72.6625 137° Southeast 510 587 33,000  Level New York Center
Fri 01:02:41 AM 39.7047 -72.5383 138° Southeast 510 587 33,000  Level New York Center
Fri 01:03:42 AM 39.5981 -72.4117 138° Southeast 510 587 33,000  Level New York Center
Fri 01:04:42 AM 39.4956 -72.2881 137° Southeast 510 587 33,000  Level New York Center
Fri 01:05:40 AM 39.3886 -72.1703 140° Southeast 505 581 33,000  Level New York Center
Fri 01:06:41 AM 39.2839 -72.0475 138° Southeast 505 581 33,000  Level New York Center
Fri 01:07:41 AM 39.1789 -71.9250 138° Southeast 505 581 33,000  Level New York Center
Fri 01:08:40 AM 39.0736 -71.7975 137° Southeast 505 581 33,000  Level New York Center
Fri 01:09:41 AM 38.9683 -71.6839 140° Southeast 506 582 33,000  Level New York Center
Fri 01:10:42 AM 38.8631 -71.5597 137° Southeast 506 582 33,000  Level New York Center
Fri 01:11:41 AM 38.7617 -71.4414 138° Southeast 506 582 33,000 -51 Level New York Center
Fri 01:12:40 AM 38.6600 -71.3261 138° Southeast 506 582 32,900  Descending New York Center
Fri 01:13:41 AM 38.5583 -71.2108 138° Southeast 501 577 33,000  Climbing New York Center
Fri 01:14:41 AM 38.4567 -71.1017 140° Southeast 496 571 32,900  Descending New York Center
Fri 01:15:41 AM 38.3422 -71.0242 152° Southeast 482 555 33,000 49 Climbing New York Center
Fri 01:16:43 AM 38.2275 -70.9392 150° Southeast 471 542 33,000  Level New York Center
Fri 01:17:40 AM 38.1150 -70.8492 148° Southeast 471 542 33,000  Level New York Center
Fri 01:18:41 AM 37.9900 -70.7514 148° Southeast 471 542 33,000  Level New York Center
Fri 01:19:41 AM 37.8817 -70.6881 155° Southeast 471 542 33,000 -49 Level New York Center
Fri 01:20:43 AM 37.7772 -70.5883 143° Southeast 471 542 32,900  Descending New York Center
Fri 01:21:42 AM 37.6603 -70.5150 154° Southeast 471 542 33,000 51 Climbing New York Center
Fri 01:22:41 AM 37.5475 -70.4317 150° Southeast 466 536 33,000  Level New York Center
Fri 01:23:41 AM 37.4242 -70.3431 150° Southeast 466 536 33,000  Level New York Center
Fri 01:24:40 AM 37.3092 -70.2653 152° Southeast 466 536 33,000  Level New York Center
Fri 01:26:00 AM 37.1630 -70.1609 150° Southeast  Level FlightAware Approximate
Fri 01:33:00 AM 36.3943 -69.6195 150° Southeast  Level FlightAware Approximate
Fri 01:34:00 AM 36.2843 -69.5430 151° Southeast  Level FlightAware Approximate
Fri 01:35:00 AM 36.1743 -69.4668 151° Southeast  Level FlightAware Approximate
Fri 01:36:00 AM 36.0725 -69.3753 142° Southeast  Level FlightAware Approximate
Fri 01:37:00 AM 35.9730 -69.2796 142° Southeast  Level FlightAware Approximate
Fri 01:37:31 AM 36.1667 -69.4500 143° Southeast 456 525 33,000  Level New York Oceanic (ODAPS)
Fri 01:38:00 AM 35.8734 -69.1841 142° Southeast  Level FlightAware Approximate
Fri 01:39:00 AM 35.7737 -69.0889 142° Southeast  Level FlightAware Approximate
Fri 01:40:00 AM 35.6740 -68.9939 142° Southeast  Level FlightAware Approximate
Fri 01:41:00 AM 35.5741 -68.8992 142° Southeast  Level FlightAware Approximate
Fri 01:42:00 AM 35.4742 -68.8047 142° Southeast  Level FlightAware Approximate
Fri 01:43:00 AM 35.2552 -68.5984 143° Southeast 456 525 33,000  Level FlightAware Transoceanic
Fri 01:44:00 AM 35.1536 -68.5050 143° Southeast 456 525 33,000  Level FlightAware Transoceanic
Fri 01:45:00 AM 35.0519 -68.4118 143° Southeast 456 525 33,000  Level FlightAware Transoceanic
Fri 01:46:00 AM 34.9501 -68.3188 143° Southeast 456 525 33,000  Level FlightAware Transoceanic
Fri 01:47:00 AM 34.8482 -68.2261 143° Southeast 456 525 33,000  Level FlightAware Transoceanic
Fri 01:48:00 AM 34.7463 -68.1336 143° Southeast 456 525 33,000  Level FlightAware Transoceanic
Fri 01:49:00 AM 34.6443 -68.0413 143° Southeast 456 525 33,000  Level FlightAware Transoceanic
Fri 01:50:00 AM 34.5423 -67.9493 143° Southeast 456 525 33,000  Level FlightAware Transoceanic
Fri 01:51:00 AM 34.4401 -67.8575 143° Southeast 456 525 33,000  Level FlightAware Transoceanic
Fri 01:52:00 AM 34.3379 -67.7659 144° Southeast 456 525 33,000  Level FlightAware Transoceanic
Fri 01:53:00 AM 34.2357 -67.6745 144° Southeast 456 525 33,000  Level FlightAware Transoceanic
Fri 01:54:00 AM 34.1333 -67.5833 149° Southeast 456 525 33,000  Level FlightAware Transoceanic
Fri 01:55:00 AM 34.0235 -67.5034 149° Southeast 456 525 33,000  Level FlightAware Transoceanic
Fri 01:55:07 AM 34.1333 -67.5833 149° Southeast 460 529 33,000  Level New York Oceanic (ODAPS)
Fri 01:56:00 AM 33.9136 -67.4236 149° Southeast 456 525 33,000  Level FlightAware Transoceanic
Fri 01:57:00 AM 33.8036 -67.3441 149° Southeast 456 525 33,000  Level FlightAware Transoceanic
Fri 01:58:00 AM 33.6936 -67.2647 149° Southeast 456 525 33,000  Level FlightAware Transoceanic
Fri 01:59:00 AM 33.5835 -67.1856 149° Southeast 456 525 33,000  Level FlightAware Transoceanic
Fri 02:00:00 AM 33.4734 -67.1066 149° Southeast 456 525 33,000  Level FlightAware Transoceanic
Fri 02:01:00 AM 33.3632 -67.0279 149° Southeast 460 529 33,000  Level FlightAware Transoceanic
Fri 02:02:00 AM 33.2530 -66.9493 149° Southeast 460 529 33,000  Level FlightAware Transoceanic
Fri 02:03:00 AM 33.1427 -66.8710 149° Southeast 460 529 33,000  Level FlightAware Transoceanic
Fri 02:04:00 AM 33.0324 -66.7929 149° Southeast 460 529 33,000  Level FlightAware Transoceanic
Fri 02:05:00 AM 32.9221 -66.7149 149° Southeast 460 529 33,000  Level FlightAware Transoceanic
Fri 02:06:00 AM 32.8117 -66.6372 149° Southeast 460 529 33,000  Level FlightAware Transoceanic
Fri 02:07:00 AM 32.7012 -66.5596 149° Southeast 460 529 33,000  Level FlightAware Transoceanic
Fri 02:08:00 AM 32.5907 -66.4822 149° Southeast 460 529 33,000  Level FlightAware Transoceanic
Fri 02:09:00 AM 32.4801 -66.4050 150° Southeast 460 529 33,000  Level FlightAware Transoceanic
Fri 02:10:00 AM 32.3695 -66.3280 150° Southeast 460 529 33,000  Level FlightAware Transoceanic
Fri 02:11:00 AM 32.2589 -66.2512 150° Southeast 460 529 33,000  Level FlightAware Transoceanic
Fri 02:12:00 AM 32.1482 -66.1746 150° Southeast 460 529 33,000  Level FlightAware Transoceanic
Fri 02:13:00 AM 32.0375 -66.0982 150° Southeast 460 529 33,000  Level FlightAware Transoceanic
Fri 02:14:00 AM 31.9267 -66.0219 150° Southeast 460 529 33,000  Level FlightAware Transoceanic
Fri 02:15:00 AM 31.8158 -65.9459 150° Southeast 460 529 33,000  Level FlightAware Transoceanic
Fri 02:16:00 AM 31.7050 -65.8700 150° Southeast 460 529 33,000  Level FlightAware Transoceanic
Fri 02:17:00 AM 31.5940 -65.7943 150° Southeast 460 529 33,000  Level FlightAware Transoceanic
Fri 02:18:00 AM 31.4831 -65.7188 150° Southeast 460 529 33,000  Level FlightAware Transoceanic
Fri 02:19:00 AM 31.3721 -65.6434 150° Southeast 460 529 33,000  Level FlightAware Transoceanic
Fri 02:20:00 AM 31.2610 -65.5683 150° Southeast 460 529 33,000  Level FlightAware Transoceanic
Fri 02:21:00 AM 31.1499 -65.4933 150° Southeast 460 529 33,000  Level FlightAware Transoceanic
Fri 02:22:00 AM 31.0388 -65.4185 150° Southeast 460 529 33,000  Level FlightAware Transoceanic
Fri 02:23:00 AM 30.9276 -65.3438 150° Southeast 460 529 33,000  Level FlightAware Transoceanic
Fri 02:24:00 AM 30.8922 -65.3201 150° Southeast 450 518 33,000  Level FlightAware Transoceanic
Fri 02:25:00 AM 30.7835 -65.2474 150° Southeast 450 518 33,000  Level FlightAware Transoceanic
Fri 02:26:00 AM 30.6747 -65.1749 150° Southeast 450 518 33,000  Level FlightAware Transoceanic
Fri 02:27:00 AM 30.5660 -65.1025 150° Southeast 450 518 33,000  Level FlightAware Transoceanic
Fri 02:28:00 AM 30.4571 -65.0303 150° Southeast 450 518 33,000  Level FlightAware Transoceanic
Fri 02:29:00 AM 30.3482 -64.9582 150° Southeast 450 518 33,000  Level FlightAware Transoceanic
Fri 02:30:00 AM 30.2393 -64.8863 150° Southeast 450 518 33,000  Level FlightAware Transoceanic
Fri 02:31:00 AM 30.1304 -64.8145 150° Southeast 450 518 33,000  Level FlightAware Transoceanic
Fri 02:32:00 AM 30.0214 -64.7429 150° Southeast 450 518 33,000  Level FlightAware Transoceanic
Fri 02:33:00 AM 29.9124 -64.6715 150° Southeast 450 518 33,000  Level FlightAware Transoceanic
Fri 02:34:00 AM 29.8033 -64.6002 150° Southeast 450 518 33,000  Level FlightAware Transoceanic
Fri 02:35:00 AM 29.6942 -64.5291 151° Southeast 450 518 33,000  Level FlightAware Transoceanic
Fri 02:36:00 AM 29.5851 -64.4581 151° Southeast 450 518 33,000  Level FlightAware Transoceanic
Fri 02:37:00 AM 29.4759 -64.3873 151° Southeast 450 518 33,000  Level FlightAware Transoceanic
Fri 02:38:00 AM 29.3667 -64.3167 169° South 450 518 33,000  Level FlightAware Transoceanic
Fri 02:39:00 AM 29.2445 -64.2890 169° South 450 518 33,000  Level FlightAware Transoceanic
Fri 02:39:47 AM 29.3667 -64.3167 169° South 447 514 33,000  Level New York Oceanic (ODAPS)
Fri 02:40:00 AM 29.1223 -64.2615 169° South 450 518 33,000  Level FlightAware Transoceanic
Fri 02:41:00 AM 29.0002 -64.2340 169° South 450 518 33,000  Level FlightAware Transoceanic
Fri 02:42:00 AM 28.8780 -64.2066 169° South 450 518 33,000  Level FlightAware Transoceanic
Fri 02:43:00 AM 28.7558 -64.1793 169° South 450 518 33,000  Level FlightAware Transoceanic
Fri 02:44:00 AM 28.6336 -64.1520 169° South 450 518 33,000  Level FlightAware Transoceanic
Fri 02:45:00 AM 28.5114 -64.1247 169° South 450 518 33,000  Level FlightAware Transoceanic
Fri 02:46:00 AM 28.3892 -64.0976 169° South 447 514 33,000  Level FlightAware Transoceanic
Fri 02:47:00 AM 28.2670 -64.0705 169° South 447 514 33,000  Level FlightAware Transoceanic
Fri 02:48:00 AM 28.1447 -64.0434 169° South 447 514 33,000  Level FlightAware Transoceanic
Fri 02:49:00 AM 28.0225 -64.0165 169° South 447 514 33,000  Level FlightAware Transoceanic
Fri 02:50:00 AM 27.9003 -63.9896 169° South 447 514 33,000  Level FlightAware Transoceanic
Fri 02:51:00 AM 27.7780 -63.9627 169° South 447 514 33,000  Level FlightAware Transoceanic
Fri 02:52:00 AM 27.6558 -63.9359 169° South 447 514 33,000  Level FlightAware Transoceanic
Fri 02:53:00 AM 27.5336 -63.9092 169° South 447 514 33,000  Level FlightAware Transoceanic
Fri 02:54:00 AM 27.4113 -63.8825 169° South 447 514 33,000  Level FlightAware Transoceanic
Fri 02:55:00 AM 27.2891 -63.8559 169° South 447 514 33,000  Level FlightAware Transoceanic
Fri 02:56:00 AM 27.1668 -63.8293 169° South 447 514 33,000  Level FlightAware Transoceanic
Fri 02:57:00 AM 27.0445 -63.8028 169° South 447 514 33,000  Level FlightAware Transoceanic
Fri 02:58:00 AM 26.9223 -63.7764 169° South 447 514 33,000  Level FlightAware Transoceanic
Fri 02:59:00 AM 26.8000 -63.7500 169° South 447 514 33,000  Level FlightAware Transoceanic
Fri 03:00:00 AM 26.6778 -63.7234 169° South 447 514 33,000  Level FlightAware Transoceanic
Fri 03:01:00 AM 26.5557 -63.6968 169° South 447 514 33,000  Level FlightAware Transoceanic
Fri 03:02:00 AM 26.4335 -63.6703 169° South 447 514 33,000  Level FlightAware Transoceanic
Fri 03:02:25 AM 26.8000 -63.7500 169° South 447 514 33,000  Level New York Oceanic (ODAPS)
Fri 03:03:00 AM 26.3113 -63.6438 169° South 447 514 33,000  Level FlightAware Transoceanic
Fri 03:04:00 AM 26.1891 -63.6175 169° South 447 514 33,000  Level FlightAware Transoceanic
Fri 03:05:00 AM 26.0670 -63.5911 169° South 447 514 33,000  Level FlightAware Transoceanic
Fri 03:06:00 AM 25.9448 -63.5648 169° South 447 514 33,000  Level FlightAware Transoceanic
Fri 03:07:00 AM 25.8226 -63.5386 169° South 447 514 33,000  Level FlightAware Transoceanic
Fri 03:08:00 AM 25.7004 -63.5124 169° South 447 514 33,000  Level FlightAware Transoceanic
Fri 03:09:00 AM 25.5782 -63.4863 169° South 447 514 33,000  Level FlightAware Transoceanic
Fri 03:10:00 AM 25.4560 -63.4602 169° South 447 514 33,000  Level FlightAware Transoceanic
Fri 03:11:00 AM 25.3337 -63.4342 169° South 447 514 33,000  Level FlightAware Transoceanic
Fri 03:12:00 AM 25.2115 -63.4082 169° South 447 514 33,000  Level FlightAware Transoceanic
Fri 03:13:00 AM 25.0893 -63.3823 169° South 447 514 33,000  Level FlightAware Transoceanic
Fri 03:14:00 AM 24.9671 -63.3564 169° South 447 514 33,000  Level FlightAware Transoceanic
Fri 03:15:00 AM 24.8448 -63.3306 169° South 447 514 33,000  Level FlightAware Transoceanic
Fri 03:16:00 AM 24.7226 -63.3049 169° South 447 514 33,000  Level FlightAware Transoceanic
Fri 03:17:00 AM 24.6004 -63.2792 169° South 447 514 33,000  Level FlightAware Transoceanic
Fri 03:18:00 AM 24.4781 -63.2535 169° South 447 514 33,000  Level FlightAware Transoceanic
Fri 03:19:00 AM 24.3559 -63.2279 169° South 447 514 33,000  Level FlightAware Transoceanic
Fri 03:20:00 AM 24.2336 -63.2023 169° South 447 514 33,000  Level FlightAware Transoceanic
Fri 03:21:00 AM 24.1113 -63.1768 169° South 447 514 33,000  Level FlightAware Transoceanic
Fri 03:22:00 AM 23.9891 -63.1514 169° South 447 514 33,000  Level FlightAware Transoceanic
Fri 03:23:00 AM 23.8668 -63.1260 169° South 447 514 33,000  Level FlightAware Transoceanic
Fri 03:24:00 AM 23.7446 -63.1006 169° South 447 514 33,000  Level FlightAware Transoceanic
Fri 03:25:00 AM 23.6223 -63.0753 169° South 447 514 33,000  Level FlightAware Transoceanic
Fri 03:26:00 AM 23.5000 -63.0500 169° South 447 514 33,000  Level FlightAware Transoceanic
Fri 03:27:00 AM 23.3764 -63.0245 169° South 447 514 33,000  Level FlightAware Transoceanic
Fri 03:27:19 AM 23.5000 -63.0500 169° South 452 520 33,000  Level New York Oceanic (ODAPS)
Fri 03:28:00 AM 23.2529 -62.9990 169° South 447 514 33,000  Level FlightAware Transoceanic
Fri 03:29:00 AM 23.1293 -62.9736 169° South 447 514 33,000  Level FlightAware Transoceanic
Fri 03:30:00 AM 23.0057 -62.9482 169° South 447 514 33,000  Level FlightAware Transoceanic
Fri 03:31:00 AM 22.8821 -62.9229 169° South 447 514 33,000  Level FlightAware Transoceanic
Fri 03:32:00 AM 22.7585 -62.8976 169° South 447 514 33,000  Level FlightAware Transoceanic
Fri 03:33:00 AM 22.6350 -62.8724 169° South 452 520 33,000  Level FlightAware Transoceanic
Fri 03:34:00 AM 22.5114 -62.8472 169° South 452 520 33,000  Level FlightAware Transoceanic
Fri 03:35:00 AM 22.3878 -62.8220 169° South 452 520 33,000  Level FlightAware Transoceanic
Fri 03:36:00 AM 22.2642 -62.7969 169° South 452 520 33,000  Level FlightAware Transoceanic
Fri 03:37:00 AM 22.1406 -62.7719 169° South 452 520 33,000  Level FlightAware Transoceanic
Fri 03:38:00 AM 22.0169 -62.7469 169° South 452 520 33,000  Level FlightAware Transoceanic
Fri 03:39:00 AM 21.8933 -62.7219 169° South 452 520 33,000  Level FlightAware Transoceanic
Fri 03:40:00 AM 21.7697 -62.6970 169° South 452 520 33,000  Level FlightAware Transoceanic
Fri 03:41:00 AM 21.6461 -62.6721 169° South 452 520 33,000  Level FlightAware Transoceanic
Fri 03:42:00 AM 21.5225 -62.6472 169° South 452 520 33,000  Level FlightAware Transoceanic
Fri 03:43:00 AM 21.3988 -62.6224 169° South 452 520 33,000  Level FlightAware Transoceanic
Fri 03:44:00 AM 21.2752 -62.5977 169° South 452 520 33,000  Level FlightAware Transoceanic
Fri 03:44:13 AM 21.3833 -62.6333 169° South 517 595 33,000  Level New York Oceanic (ODAPS)
Fri 03:45:00 AM 21.1516 -62.5730 169° South 452 520 33,000  Level FlightAware Transoceanic
Fri 03:45:54 AM 21.0500 -62.5333 170° South 410 472 33,000  Level San Juan Center
Fri 03:46:00 AM 21.0279 -62.5483 169° South 452 520 33,000  Level FlightAware Transoceanic
Fri 03:46:55 AM 20.9333 -62.5167 172° South 450 518 33,000  Level San Juan Center
Fri 03:47:00 AM 20.9043 -62.5237 169° South 452 520 33,000  Level FlightAware Transoceanic
Fri 03:47:55 AM 20.8000 -62.4833 167° South 460 529 33,000  Level San Juan Center
Fri 03:48:00 AM 20.7806 -62.4991 169° South 452 520 33,000  Level FlightAware Transoceanic
Fri 03:48:55 AM 20.6667 -62.4667 173° South 460 529 33,000  Level San Juan Center
Fri 03:49:00 AM 20.6570 -62.4745 169° South 452 520 33,000  Level FlightAware Transoceanic
Fri 03:49:56 AM 20.5500 -62.4333 165° South 460 529 33,000  Level San Juan Center
Fri 03:50:00 AM 20.4067 -62.4255 170° South 517 595 33,000  Level FlightAware Transoceanic
Fri 03:50:56 AM 20.4167 -62.4167 173° South 460 529 33,000  Level San Juan Center
Fri 03:51:00 AM 20.2801 -62.4010 170° South 517 595 33,000  Level FlightAware Transoceanic
Fri 03:51:56 AM 20.3000 -62.3833 165° South 460 529 33,000  Level San Juan Center
Fri 03:52:56 AM 20.1667 -62.3667 173° South 450 518 33,000  Level San Juan Center
Fri 03:53:57 AM 20.0500 -62.3333 165° South 460 529 33,000  Level San Juan Center
Fri 03:54:57 AM 19.9167 -62.3167 173° South 460 529 33,000  Level San Juan Center
Fri 03:55:57 AM 19.7833 -62.2833 167° South 470 541 33,000  Level San Juan Center
Fri 03:56:58 AM 19.6667 -62.2500 165° South 460 529 33,000  Level San Juan Center
Fri 03:57:58 AM 19.5333 -62.2333 173° South 460 529 33,000  Level San Juan Center
Fri 03:58:58 AM 19.4167 -62.2167 172° South 460 529 33,000  Level San Juan Center
Fri 03:59:59 AM 19.2833 -62.1833 167° South 460 529 33,000  Level San Juan Center
Fri 04:00:59 AM 19.1667 -62.1667 172° South 460 529 33,000  Level San Juan Center
Fri 04:01:59 AM 19.0333 -62.1500 173° South 460 529 33,000  Level San Juan Center
Fri 04:03:00 AM 18.9000 -62.1333 173° South 460 529 33,000  Level San Juan Center
Fri 04:04:00 AM 18.7833 -62.1000 165° South 450 518 33,000  Level San Juan Center
Fri 04:05:00 AM 18.6500 -62.0833 173° South 450 518 33,000  Level San Juan Center
Fri 04:06:01 AM 18.5333 -62.0667 172° South 450 518 33,000  Level San Juan Center
Fri 04:07:01 AM 18.4000 -62.0333 167° South 460 529 33,000  Level San Juan Center
Fri 04:08:01 AM 18.2833 -62.0167 172° South 460 529 33,000  Level San Juan Center
Fri 04:09:01 AM 18.1500 -61.9833 167° South 460 529 33,000  Level San Juan Center
Fri 04:10:02 AM 18.0333 -61.9667 172° South 460 529 33,000  Level San Juan Center
Fri 04:11:02 AM 17.9000 -61.9333 167° South 460 529 33,000  Level San Juan Center
Fri 04:13:00 AM 17.6560 -61.8917 171° South  Level FlightAware Approximate
Fri 04:20:00 AM 16.8073 -61.6703 158° South  Level FlightAware Approximate
Fri 04:21:00 AM 16.6906 -61.6215 158° South  Level FlightAware Approximate
Fri 04:22:00 AM 16.5739 -61.5728 158° South  Level FlightAware Approximate
Fri 04:23:00 AM 16.4572 -61.5241 158° South  Level FlightAware Approximate
Fri 04:24:00 AM 16.3405 -61.4755 158° South  Level FlightAware Approximate
Fri 04:25:00 AM 16.2238 -61.4269 158° South  Level FlightAware Approximate
Fri 04:26:00 AM 16.1071 -61.3784 158° South  Level FlightAware Approximate
Fri 04:27:00 AM 15.9903 -61.3300 158° South  Level FlightAware Approximate
Fri 04:28:00 AM 15.8736 -61.2816 158° South  Level FlightAware Approximate
Fri 04:29:00 AM 15.7568 -61.2333 158° South  Level FlightAware Approximate
Fri 04:30:00 AM 15.6400 -61.1850 158° South  Level FlightAware Approximate
Fri 04:31:00 AM 15.5233 -61.1368 158° South  Level FlightAware Approximate
Fri 04:32:00 AM 15.4065 -61.0886 158° South  Level FlightAware Approximate
Fri 04:33:00 AM 15.2897 -61.0405 158° South  Level FlightAware Approximate
Fri 04:34:00 AM 15.1729 -60.9925 158° South  Level FlightAware Approximate
Fri 04:35:00 AM 15.0560 -60.9445 158° South  Level FlightAware Approximate
Fri 04:36:00 AM 14.9392 -60.8965 158° South  Level FlightAware Approximate
Fri 04:37:00 AM 14.8224 -60.8486 158° South  Level FlightAware Approximate
Fri 04:38:00 AM 14.7055 -60.8008 158° South  Level FlightAware Approximate
Fri 04:39:00 AM 14.5887 -60.7530 158° South  Level FlightAware Approximate
Fri 04:40:00 AM 14.4718 -60.7052 158° South  Level FlightAware Approximate
Fri 04:41:00 AM 14.3549 -60.6575 158° South  Level FlightAware Approximate
Fri 04:42:00 AM 14.2380 -60.6099 158° South  Level FlightAware Approximate
Fri 04:43:00 AM 14.1211 -60.5623 158° South  Level FlightAware Approximate
Fri 04:44:00 AM 14.0042 -60.5148 158° South  Level FlightAware Approximate
Fri 04:45:00 AM 13.8873 -60.4673 158° South  Level FlightAware Approximate
Fri 04:46:00 AM 13.7704 -60.4198 158° South  Level FlightAware Approximate
Fri 04:47:00 AM 13.6534 -60.3724 159° South  Level FlightAware Approximate
Fri 04:48:00 AM 13.5365 -60.3251 159° South  Level FlightAware Approximate
Fri 04:49:00 AM 13.4195 -60.2778 159° South  Level FlightAware Approximate
Fri 04:50:00 AM 13.3024 -60.2308 159° South  Level FlightAware Approximate
Fri 04:51:00 AM 13.1853 -60.1839 159° South  Level FlightAware Approximate
Fri 04:52:00 AM 13.0682 -60.1370 159° South  Level FlightAware Approximate
Fri 04:53:00 AM 12.9511 -60.0902 159° South  Level FlightAware Approximate
Fri 04:54:00 AM 12.8340 -60.0434 159° South  Level FlightAware Approximate
Fri 04:55:00 AM 12.7168 -59.9967 159° South  Level FlightAware Approximate
Fri 04:56:00 AM 12.5990 -59.9521 160° South  Level FlightAware Approximate
Fri 04:57:00 AM 12.4808 -59.9083 160° South  Level FlightAware Approximate
Fri 04:58:00 AM 12.3625 -59.8646 160° South  Level FlightAware Approximate
Fri 04:59:00 AM 12.2443 -59.8209 160° South  Level FlightAware Approximate
Fri 05:00:00 AM 12.1261 -59.7772 160° South  Level FlightAware Approximate
Fri 05:01:00 AM 12.0079 -59.7336 160° South  Level FlightAware Approximate
Fri 05:02:00 AM 11.8899 -59.6893 159° South  Level FlightAware Approximate
Fri 05:03:00 AM 11.7730 -59.6424 159° South  Level FlightAware Approximate
Fri 05:04:00 AM 11.6559 -59.5955 159° South  Level FlightAware Approximate
Fri 05:05:00 AM 11.5389 -59.5487 159° South  Level FlightAware Approximate
Fri 05:06:00 AM 11.4219 -59.5019 159° South  Level FlightAware Approximate
Fri 05:07:00 AM 11.3049 -59.4552 159° South  Level FlightAware Approximate
Fri 05:08:00 AM 11.1879 -59.4085 159° South  Level FlightAware Approximate
Fri 05:09:00 AM 11.0707 -59.3620 159° South  Level FlightAware Approximate
Fri 05:10:00 AM 10.9536 -59.3157 159° South  Level FlightAware Approximate
Fri 05:11:00 AM 10.8364 -59.2695 159° South  Level FlightAware Approximate
Fri 05:12:00 AM 10.7192 -59.2232 159° South  Level FlightAware Approximate
Fri 05:13:00 AM 10.6020 -59.1770 159° South  Level FlightAware Approximate
Fri 05:14:00 AM 10.4848 -59.1309 159° South  Level FlightAware Approximate
Fri 05:15:00 AM 10.3676 -59.0848 159° South  Level FlightAware Approximate
Fri 05:16:00 AM 10.2504 -59.0387 159° South  Level FlightAware Approximate
Fri 05:17:00 AM 10.1332 -58.9926 159° South  Level FlightAware Approximate
Fri 05:18:00 AM 10.0159 -58.9466 159° South  Level FlightAware Approximate
Fri 05:19:00 AM 9.8987 -58.9006 159° South  Level FlightAware Approximate
Fri 05:20:00 AM 9.7815 -58.8546 159° South  Level FlightAware Approximate
Fri 05:21:00 AM 9.6642 -58.8087 159° South  Level FlightAware Approximate
Fri 05:22:00 AM 9.5470 -58.7628 159° South  Level FlightAware Approximate
Fri 05:23:00 AM 9.4297 -58.7169 159° South  Level FlightAware Approximate
Fri 05:24:00 AM 9.3124 -58.6711 159° South  Level FlightAware Approximate
Fri 05:25:00 AM 9.1952 -58.6253 159° South  Level FlightAware Approximate
Fri 05:26:00 AM 9.0779 -58.5796 159° South  Level FlightAware Approximate
Fri 05:27:00 AM 8.9606 -58.5338 159° South  Level FlightAware Approximate
Fri 05:28:00 AM 8.8424 -58.4908 161° South  Level FlightAware Approximate
Fri 05:29:00 AM 8.7235 -58.4495 161° South  Level FlightAware Approximate
Fri 05:30:00 AM 8.6047 -58.4081 161° South  Level FlightAware Approximate
Fri 05:31:00 AM 8.4861 -58.3660 160° South  Level FlightAware Approximate
Fri 05:32:00 AM 8.3679 -58.3228 160° South  Level FlightAware Approximate
Fri 05:33:00 AM 8.2497 -58.2795 160° South  Level FlightAware Approximate
Fri 05:34:00 AM 8.1315 -58.2363 160° South  Level FlightAware Approximate
Fri 05:35:00 AM 8.0134 -58.1931 160° South  Level FlightAware Approximate
Fri 05:36:00 AM 7.8952 -58.1500 160° South  Level FlightAware Approximate
Fri 05:37:00 AM 7.7770 -58.1068 160° South  Level FlightAware Approximate
Fri 05:38:00 AM 7.6588 -58.0637 160° South  Level FlightAware Approximate
Fri 05:39:00 AM 7.5406 -58.0207 160° South  Level FlightAware Approximate
Fri 05:40:00 AM 7.4224 -57.9776 160° South  Level FlightAware Approximate
Fri 05:41:00 AM 7.3042 -57.9346 160° South  Level FlightAware Approximate
Fri 05:42:00 AM 7.1859 -57.8915 160° South  Level FlightAware Approximate
Fri 05:43:00 AM 7.0677 -57.8486 160° South  Level FlightAware Approximate
Fri 05:44:00 AM 6.9495 -57.8056 160° South  Level FlightAware Approximate
Fri 05:45:00 AM 6.8313 -57.7626 160° South  Level FlightAware Approximate
Fri 05:46:00 AM 6.7130 -57.7197 160° South  Level FlightAware Approximate
Fri 05:47:00 AM 6.5948 -57.6768 160° South  Level FlightAware Approximate
Fri 05:48:00 AM 6.4766 -57.6339 160° South  Level FlightAware Approximate
Fri 05:49:00 AM 6.3583 -57.5910 160° South  Level FlightAware Approximate
Fri 05:50:00 AM 6.2401 -57.5482 160° South  Level FlightAware Approximate
Fri 05:51:00 AM 6.1219 -57.5054 160° South  Level FlightAware Approximate
Fri 05:52:00 AM 6.0036 -57.4626 160° South  Level FlightAware Approximate
Fri 05:53:00 AM 5.8854 -57.4198 160° South  Level FlightAware Approximate
Fri 05:54:00 AM 5.7671 -57.3770 160° South  Level FlightAware Approximate
Fri 05:55:00 AM 5.6488 -57.3342 160° South  Level FlightAware Approximate
Fri 05:56:00 AM 5.5306 -57.2915 160° South  Level FlightAware Approximate
Fri 05:57:00 AM 5.4123 -57.2488 160° South  Level FlightAware Approximate
Fri 05:58:00 AM 5.2940 -57.2061 160° South  Level FlightAware Approximate
Fri 05:59:00 AM 5.1758 -57.1634 160° South  Level FlightAware Approximate
Fri 06:00:00 AM 5.0575 -57.1207 160° South  Level FlightAware Approximate
Fri 06:01:00 AM 4.9392 -57.0781 160° South  Level FlightAware Approximate
Fri 06:02:00 AM 4.8209 -57.0354 160° South  Level FlightAware Approximate
Fri 06:03:00 AM 4.7026 -56.9928 160° South  Level FlightAware Approximate
Fri 06:04:00 AM 4.5844 -56.9502 160° South  Level FlightAware Approximate
Fri 06:05:00 AM 4.4661 -56.9076 160° South  Level FlightAware Approximate
Fri 06:06:00 AM 4.3478 -56.8650 160° South  Level FlightAware Approximate
Fri 06:07:00 AM 4.2295 -56.8225 160° South  Level FlightAware Approximate
Fri 06:08:00 AM 4.1112 -56.7799 160° South  Level FlightAware Approximate
Fri 06:09:00 AM 3.9929 -56.7374 160° South  Level FlightAware Approximate
Fri 06:10:00 AM 3.8746 -56.6948 160° South  Level FlightAware Approximate
Fri 06:11:00 AM 3.7563 -56.6523 160° South  Level FlightAware Approximate
Fri 06:12:00 AM 3.6380 -56.6098 160° South  Level FlightAware Approximate
Fri 06:13:00 AM 3.5197 -56.5673 160° South  Level FlightAware Approximate
Fri 06:14:00 AM 3.4014 -56.5248 160° South  Level FlightAware Approximate
Fri 06:15:00 AM 3.2830 -56.4824 160° South  Level FlightAware Approximate
Fri 06:16:00 AM 3.1647 -56.4399 160° South  Level FlightAware Approximate
Fri 06:17:00 AM 3.0464 -56.3976 160° South  Level FlightAware Approximate
Fri 06:18:00 AM 2.9280 -56.3554 160° South  Level FlightAware Approximate
Fri 06:19:00 AM 2.8096 -56.3132 160° South  Level FlightAware Approximate
Fri 06:20:00 AM 2.6911 -56.2710 160° South  Level FlightAware Approximate
Fri 06:21:00 AM 2.5727 -56.2289 160° South  Level FlightAware Approximate
Fri 06:22:00 AM 2.4543 -56.1867 160° South  Level FlightAware Approximate
Fri 06:23:00 AM 2.3359 -56.1446 160° South  Level FlightAware Approximate
Fri 06:24:00 AM 2.2175 -56.1024 160° South  Level FlightAware Approximate
Fri 06:25:00 AM 2.0991 -56.0603 160° South  Level FlightAware Approximate
Fri 06:26:00 AM 1.9806 -56.0182 160° South  Level FlightAware Approximate
Fri 06:27:00 AM 1.8622 -55.9760 160° South  Level FlightAware Approximate
Fri 06:28:00 AM 1.7438 -55.9339 160° South  Level FlightAware Approximate
Fri 06:29:00 AM 1.6254 -55.8918 160° South  Level FlightAware Approximate
Fri 06:30:00 AM 1.5070 -55.8497 160° South  Level FlightAware Approximate
Fri 06:31:00 AM 1.3886 -55.8076 160° South  Level FlightAware Approximate
Fri 06:32:00 AM 1.2701 -55.7655 160° South  Level FlightAware Approximate
Fri 06:33:00 AM 1.1517 -55.7234 160° South  Level FlightAware Approximate
Fri 06:34:00 AM 1.0333 -55.6813 160° South  Level FlightAware Approximate
Fri 06:35:00 AM 0.9148 -55.6392 160° South  Level FlightAware Approximate
Fri 06:36:00 AM 0.7964 -55.5971 160° South  Level FlightAware Approximate
Fri 06:37:00 AM 0.6780 -55.5551 160° South  Level FlightAware Approximate
Fri 06:38:00 AM 0.5596 -55.5130 160° South  Level FlightAware Approximate
Fri 06:39:00 AM 0.4411 -55.4709 160° South  Level FlightAware Approximate
Fri 06:40:00 AM 0.3227 -55.4288 160° South  Level FlightAware Approximate
Fri 06:41:00 AM 0.2043 -55.3867 160° South  Level FlightAware Approximate
Fri 06:42:00 AM 0.0858 -55.3447 160° South  Level FlightAware Approximate
Fri 06:43:00 AM -0.0326 -55.3026 160° South  Level FlightAware Approximate
Fri 06:44:00 AM -0.1510 -55.2605 160° South  Level FlightAware Approximate
Fri 06:45:00 AM -0.2695 -55.2185 160° South  Level FlightAware Approximate
Fri 06:46:00 AM -0.3879 -55.1764 160° South  Level FlightAware Approximate
Fri 06:47:00 AM -0.5063 -55.1343 160° South  Level FlightAware Approximate
Fri 06:48:00 AM -0.6247 -55.0922 160° South  Level FlightAware Approximate
Fri 06:49:00 AM -0.7432 -55.0502 160° South  Level FlightAware Approximate
Fri 06:50:00 AM -0.8616 -55.0081 160° South  Level FlightAware Approximate
Fri 06:51:00 AM -0.9800 -54.9660 160° South  Level FlightAware Approximate
Fri 06:52:00 AM -1.0985 -54.9239 160° South  Level FlightAware Approximate
Fri 06:53:00 AM -1.2169 -54.8818 160° South  Level FlightAware Approximate
Fri 06:54:00 AM -1.3353 -54.8397 160° South  Level FlightAware Approximate
Fri 06:55:00 AM -1.4537 -54.7976 160° South  Level FlightAware Approximate
Fri 06:56:00 AM -1.5721 -54.7555 160° South  Level FlightAware Approximate
Fri 06:57:00 AM -1.6906 -54.7134 160° South  Level FlightAware Approximate
Fri 06:58:00 AM -1.8090 -54.6713 160° South  Level FlightAware Approximate
Fri 06:59:00 AM -1.9274 -54.6292 160° South  Level FlightAware Approximate
Fri 07:00:00 AM -2.0458 -54.5871 160° South  Level FlightAware Approximate
Fri 07:01:00 AM -2.1642 -54.5449 160° South  Level FlightAware Approximate
Fri 07:02:00 AM -2.2827 -54.5028 160° South  Level FlightAware Approximate
Fri 07:03:00 AM -2.4011 -54.4606 160° South  Level FlightAware Approximate
Fri 07:04:00 AM -2.5195 -54.4185 160° South  Level FlightAware Approximate
Fri 07:05:00 AM -2.6379 -54.3763 160° South  Level FlightAware Approximate
Fri 07:06:00 AM -2.7563 -54.3342 160° South  Level FlightAware Approximate
Fri 07:07:00 AM -2.8747 -54.2920 160° South  Level FlightAware Approximate
Fri 07:08:00 AM -2.9931 -54.2498 160° South  Level FlightAware Approximate
Fri 07:09:00 AM -3.1115 -54.2076 160° South  Level FlightAware Approximate
Fri 07:10:00 AM -3.2299 -54.1654 160° South  Level FlightAware Approximate
Fri 07:11:00 AM -3.3484 -54.1232 160° South  Level FlightAware Approximate
Fri 07:12:00 AM -3.4667 -54.0810 160° South  Level FlightAware Approximate
Fri 07:13:00 AM -3.5852 -54.0387 160° South  Level FlightAware Approximate
Fri 07:14:00 AM -3.7036 -53.9965 160° South  Level FlightAware Approximate
Fri 07:15:00 AM -3.8219 -53.9543 160° South  Level FlightAware Approximate
Fri 07:16:00 AM -3.9403 -53.9120 160° South  Level FlightAware Approximate
Fri 07:17:00 AM -4.0587 -53.8697 160° South  Level FlightAware Approximate
Fri 07:18:00 AM -4.1771 -53.8274 160° South  Level FlightAware Approximate
Fri 07:19:00 AM -4.2955 -53.7851 160° South  Level FlightAware Approximate
Fri 07:20:00 AM -4.4139 -53.7428 160° South  Level FlightAware Approximate
Fri 07:21:00 AM -4.5323 -53.7005 160° South  Level FlightAware Approximate
Fri 07:22:00 AM -4.6507 -53.6581 160° South  Level FlightAware Approximate
Fri 07:23:00 AM -4.7690 -53.6157 160° South  Level FlightAware Approximate
Fri 07:24:00 AM -4.8874 -53.5734 160° South  Level FlightAware Approximate
Fri 07:25:00 AM -5.0058 -53.5310 160° South  Level FlightAware Approximate
Fri 07:26:00 AM -5.1241 -53.4886 160° South  Level FlightAware Approximate
Fri 07:27:00 AM -5.2425 -53.4462 160° South  Level FlightAware Approximate
Fri 07:28:00 AM -5.3609 -53.4037 160° South  Level FlightAware Approximate
Fri 07:29:00 AM -5.4792 -53.3613 160° South  Level FlightAware Approximate
Fri 07:30:00 AM -5.5976 -53.3188 160° South  Level FlightAware Approximate
Fri 07:31:00 AM -5.7159 -53.2763 160° South  Level FlightAware Approximate
Fri 07:32:00 AM -5.8343 -53.2338 160° South  Level FlightAware Approximate
Fri 07:33:00 AM -5.9526 -53.1913 160° South  Level FlightAware Approximate
Fri 07:34:00 AM -6.0710 -53.1488 160° South  Level FlightAware Approximate
Fri 07:35:00 AM -6.1893 -53.1062 160° South  Level FlightAware Approximate
Fri 07:36:00 AM -6.3077 -53.0636 160° South  Level FlightAware Approximate
Fri 07:37:00 AM -6.4260 -53.0210 160° South  Level FlightAware Approximate
Fri 07:38:00 AM -6.5443 -52.9784 160° South  Level FlightAware Approximate
Fri 07:39:00 AM -6.6627 -52.9357 160° South  Level FlightAware Approximate
Fri 07:40:00 AM -6.7810 -52.8931 160° South  Level FlightAware Approximate
Fri 07:41:00 AM -6.8993 -52.8504 160° South  Level FlightAware Approximate
Fri 07:42:00 AM -7.0176 -52.8077 160° South  Level FlightAware Approximate
Fri 07:43:00 AM -7.1365 -52.7648 160° South  Level FlightAware Approximate
Fri 07:44:00 AM -7.2554 -52.7218 160° South  Level FlightAware Approximate
Fri 07:45:00 AM -7.3742 -52.6789 160° South  Level FlightAware Approximate
Fri 07:46:00 AM -7.4931 -52.6359 160° South  Level FlightAware Approximate
Fri 07:47:00 AM -7.6120 -52.5928 160° South  Level FlightAware Approximate
Fri 07:48:00 AM -7.7309 -52.5498 160° South  Level FlightAware Approximate
Fri 07:49:00 AM -7.8497 -52.5067 160° South  Level FlightAware Approximate
Fri 07:50:00 AM -7.9686 -52.4636 160° South  Level FlightAware Approximate
Fri 07:51:00 AM -8.0874 -52.4205 160° South  Level FlightAware Approximate
Fri 07:52:00 AM -8.2063 -52.3774 160° South  Level FlightAware Approximate
Fri 07:53:00 AM -8.3251 -52.3342 160° South  Level FlightAware Approximate
Fri 07:54:00 AM -8.4439 -52.2910 160° South  Level FlightAware Approximate
Fri 07:55:00 AM -8.5627 -52.2478 160° South  Level FlightAware Approximate
Fri 07:56:00 AM -8.6816 -52.2045 160° South  Level FlightAware Approximate
Fri 07:57:00 AM -8.8004 -52.1613 160° South  Level FlightAware Approximate
Fri 07:58:00 AM -8.9192 -52.1180 160° South  Level FlightAware Approximate
Fri 07:59:00 AM -9.0380 -52.0746 160° South  Level FlightAware Approximate
Fri 08:00:00 AM -9.1568 -52.0313 160° South  Level FlightAware Approximate
Fri 08:01:00 AM -9.2756 -51.9879 160° South  Level FlightAware Approximate
Fri 08:02:00 AM -9.3944 -51.9445 160° South  Level FlightAware Approximate
Fri 08:03:00 AM -9.5132 -51.9010 160° South  Level FlightAware Approximate
Fri 08:04:00 AM -9.6320 -51.8575 160° South  Level FlightAware Approximate
Fri 08:05:00 AM -9.7508 -51.8140 160° South  Level FlightAware Approximate
Fri 08:06:00 AM -9.8695 -51.7705 160° South  Level FlightAware Approximate
Fri 08:07:00 AM -9.9883 -51.7269 160° South  Level FlightAware Approximate
Fri 08:08:00 AM -10.1071 -51.6833 160° South  Level FlightAware Approximate
Fri 08:09:00 AM -10.2258 -51.6397 160° South  Level FlightAware Approximate
Fri 08:10:00 AM -10.3446 -51.5960 160° South  Level FlightAware Approximate
Fri 08:11:00 AM -10.4633 -51.5523 160° South  Level FlightAware Approximate
Fri 08:12:00 AM -10.5821 -51.5086 160° South  Level FlightAware Approximate
Fri 08:13:00 AM -10.7008 -51.4648 160° South  Level FlightAware Approximate
Fri 08:14:00 AM -10.8195 -51.4210 160° South  Level FlightAware Approximate
Fri 08:15:00 AM -10.9382 -51.3772 160° South  Level FlightAware Approximate
Fri 08:16:00 AM -11.0570 -51.3333 160° South  Level FlightAware Approximate
Fri 08:17:00 AM -11.1757 -51.2894 160° South  Level FlightAware Approximate
Fri 08:18:00 AM -11.2944 -51.2454 160° South  Level FlightAware Approximate
Fri 08:19:00 AM -11.4131 -51.2015 160° South  Level FlightAware Approximate
Fri 08:20:00 AM -11.5317 -51.1574 160° South  Level FlightAware Approximate
Fri 08:21:00 AM -11.6504 -51.1134 160° South  Level FlightAware Approximate
Fri 08:22:00 AM -11.7691 -51.0693 160° South  Level FlightAware Approximate
Fri 08:23:00 AM -11.8878 -51.0252 160° South  Level FlightAware Approximate
Fri 08:24:00 AM -12.0064 -50.9810 160° South  Level FlightAware Approximate
Fri 08:25:00 AM -12.1251 -50.9368 160° South  Level FlightAware Approximate
Fri 08:26:00 AM -12.2437 -50.8925 160° South  Level FlightAware Approximate
Fri 08:27:00 AM -12.3624 -50.8482 160° South  Level FlightAware Approximate
Fri 08:28:00 AM -12.4810 -50.8039 160° South  Level FlightAware Approximate
Fri 08:29:00 AM -12.5996 -50.7595 160° South  Level FlightAware Approximate
Fri 08:30:00 AM -12.7183 -50.7151 160° South  Level FlightAware Approximate
Fri 08:31:00 AM -12.8369 -50.6707 160° South  Level FlightAware Approximate
Fri 08:32:00 AM -12.9555 -50.6262 160° South  Level FlightAware Approximate
Fri 08:33:00 AM -13.0741 -50.5816 160° South  Level FlightAware Approximate
Fri 08:34:00 AM -13.1927 -50.5371 160° South  Level FlightAware Approximate
Fri 08:35:00 AM -13.3112 -50.4924 160° South  Level FlightAware Approximate
Fri 08:36:00 AM -13.4298 -50.4478 160° South  Level FlightAware Approximate
Fri 08:37:00 AM -13.5484 -50.4031 160° South  Level FlightAware Approximate
Fri 08:38:00 AM -13.6669 -50.3583 160° South  Level FlightAware Approximate
Fri 08:39:00 AM -13.7855 -50.3135 160° South  Level FlightAware Approximate
Fri 08:40:00 AM -13.9040 -50.2687 160° South  Level FlightAware Approximate
Fri 08:41:00 AM -14.0226 -50.2238 160° South  Level FlightAware Approximate
Fri 08:42:00 AM -14.1411 -50.1788 160° South  Level FlightAware Approximate
Fri 08:43:00 AM -14.2596 -50.1339 160° South  Level FlightAware Approximate
Fri 08:44:00 AM -14.3781 -50.0888 160° South  Level FlightAware Approximate
Fri 08:45:00 AM -14.4966 -50.0438 160° South  Level FlightAware Approximate
Fri 08:46:00 AM -14.6151 -49.9986 160° South  Level FlightAware Approximate
Fri 08:47:00 AM -14.7336 -49.9534 160° South  Level FlightAware Approximate
Fri 08:48:00 AM -14.8520 -49.9082 160° South  Level FlightAware Approximate
Fri 08:49:00 AM -14.9705 -49.8629 160° South  Level FlightAware Approximate
Fri 08:50:00 AM -15.0890 -49.8176 160° South  Level FlightAware Approximate
Fri 08:51:00 AM -15.2074 -49.7723 160° South  Level FlightAware Approximate
Fri 08:52:00 AM -15.3259 -49.7268 160° South  Level FlightAware Approximate
Fri 08:53:00 AM -15.4443 -49.6813 160° South  Level FlightAware Approximate
Fri 08:54:00 AM -15.5627 -49.6358 160° South  Level FlightAware Approximate
Fri 08:55:00 AM -15.6811 -49.5902 160° South  Level FlightAware Approximate
Fri 08:56:00 AM -15.7995 -49.5446 160° South  Level FlightAware Approximate
Fri 08:57:00 AM -15.9179 -49.4989 160° South  Level FlightAware Approximate
Fri 08:58:00 AM -16.0363 -49.4532 160° South  Level FlightAware Approximate
Fri 08:59:00 AM -16.1547 -49.4074 160° South  Level FlightAware Approximate
Fri 09:00:00 AM -16.2730 -49.3615 160° South  Level FlightAware Approximate
Fri 09:01:00 AM -16.3914 -49.3156 160° South  Level FlightAware Approximate
Fri 09:02:00 AM -16.5097 -49.2696 160° South  Level FlightAware Approximate
Fri 09:03:00 AM -16.6280 -49.2236 160° South  Level FlightAware Approximate
Fri 09:04:00 AM -16.7464 -49.1775 160° South  Level FlightAware Approximate
Fri 09:05:00 AM -16.8647 -49.1314 160° South  Level FlightAware Approximate
Fri 09:06:00 AM -16.9830 -49.0852 160° South  Level FlightAware Approximate
Fri 09:07:00 AM -17.1013 -49.0390 160° South  Level FlightAware Approximate
Fri 09:08:00 AM -17.2195 -48.9927 159° South  Level FlightAware Approximate
Fri 09:09:00 AM -17.3378 -48.9463 159° South  Level FlightAware Approximate
Fri 09:10:00 AM -17.4561 -48.8999 159° South  Level FlightAware Approximate
Fri 09:11:00 AM -17.5743 -48.8534 159° South  Level FlightAware Approximate
Fri 09:12:00 AM -17.6926 -48.8068 159° South  Level FlightAware Approximate
Fri 09:13:00 AM -17.8108 -48.7602 159° South  Level FlightAware Approximate
Fri 09:14:00 AM -17.9290 -48.7135 159° South  Level FlightAware Approximate
Fri 09:15:00 AM -18.0472 -48.6668 159° South  Level FlightAware Approximate
Fri 09:16:00 AM -18.1654 -48.6200 159° South  Level FlightAware Approximate
Fri 09:17:00 AM -18.2836 -48.5732 159° South  Level FlightAware Approximate
Fri 09:18:00 AM -18.4018 -48.5262 159° South  Level FlightAware Approximate
Fri 09:19:00 AM -18.5199 -48.4792 159° South  Level FlightAware Approximate
Fri 09:20:00 AM -18.6381 -48.4322 159° South  Level FlightAware Approximate
Fri 09:21:00 AM -18.7562 -48.3851 159° South  Level FlightAware Approximate
Fri 09:22:00 AM -18.8743 -48.3379 159° South  Level FlightAware Approximate
Fri 09:23:00 AM -18.9924 -48.2906 159° South  Level FlightAware Approximate
Fri 09:24:00 AM -19.1105 -48.2433 159° South  Level FlightAware Approximate
Fri 09:25:00 AM -19.2286 -48.1959 159° South  Level FlightAware Approximate
Fri 09:26:00 AM -19.3467 -48.1485 159° South  Level FlightAware Approximate
Fri 09:27:00 AM -19.4648 -48.1010 159° South  Level FlightAware Approximate
Fri 09:28:00 AM -19.5828 -48.0534 159° South  Level FlightAware Approximate
Fri 09:29:00 AM -19.7008 -48.0057 159° South  Level FlightAware Approximate
Fri 09:30:00 AM -19.8189 -47.9580 159° South  Level FlightAware Approximate
Fri 09:31:00 AM -19.9369 -47.9102 159° South  Level FlightAware Approximate
Fri 09:32:00 AM -20.0549 -47.8623 159° South  Level FlightAware Approximate
Fri 09:33:00 AM -20.1729 -47.8144 159° South  Level FlightAware Approximate
Fri 09:34:00 AM -20.2908 -47.7663 159° South  Level FlightAware Approximate
Fri 09:35:00 AM -20.4088 -47.7182 159° South  Level FlightAware Approximate
Fri 09:36:00 AM -20.5268 -47.6701 159° South  Level FlightAware Approximate
Fri 09:37:00 AM -20.6447 -47.6218 159° South  Level FlightAware Approximate
Fri 09:38:00 AM -20.7626 -47.5735 159° South  Level FlightAware Approximate
Fri 09:39:00 AM -20.8805 -47.5251 159° South  Level FlightAware Approximate
Fri 09:40:00 AM -20.9984 -47.4767 159° South  Level FlightAware Approximate
Fri 09:41:00 AM -21.1163 -47.4281 159° South  Level FlightAware Approximate
Fri 09:42:00 AM -21.2341 -47.3795 159° South  Level FlightAware Approximate
Fri 09:43:00 AM -21.3520 -47.3308 159° South  Level FlightAware Approximate
Fri 09:44:00 AM -21.4697 -47.2818 155° Southeast  Level FlightAware Approximate
Fri 09:45:00 AM -21.5842 -47.2245 155° Southeast  Level FlightAware Approximate
Fri 09:46:00 AM -21.7040 -47.1820 163° South  Level FlightAware Approximate
Fri 09:47:00 AM -21.8210 -47.1316 160° South  Level FlightAware Approximate
Fri 09:48:00 AM -21.9394 -47.0843 160° South  Level FlightAware Approximate
Fri 09:49:00 AM -22.0568 -47.0340 158° South  Level FlightAware Approximate
Fri 09:50:00 AM -22.1744 -46.9846 161° South  Level FlightAware Approximate
Fri 09:51:00 AM -22.2937 -46.9399 161° South  Level FlightAware Approximate
Fri 09:52:00 AM -22.4127 -46.8941 157° South  Level FlightAware Approximate
Fri 09:53:00 AM -22.5285 -46.8396 157° South  Level FlightAware Approximate
Fri 09:54:00 AM -22.6443 -46.7851 157° South  Level FlightAware Approximate
Fri 09:55:00 AM -22.7634 -46.7400 163° South  Level FlightAware Approximate
Fri 09:56:00 AM -22.8816 -46.6926 155° Southeast  Level FlightAware Approximate
Fri 09:57:00 AM -22.9963 -46.6352 155° Southeast  Level FlightAware Approximate
Fri 09:58:00 AM -23.1142 -46.5868 159° South  Level FlightAware Approximate
Fri 09:59:00 AM -23.2315 -46.5401 149° Southeast  Level FlightAware Approximate
Fri 10:00:00 AM -23.3465 -46.4847 160° South  Level FlightAware Approximate
Fri 10:01:00 AM -23.4167 -46.4667 167° South  Level FlightAware Approximate
Fri 10:02:00 AM -23.4321 -46.4695 167° South  Level Estimated
Fri 10:03:00 AM -23.4321 -46.4695 167° South  Level Estimated
Fri 10:04:00 AM -23.4321 -46.4695 167° South  Level Estimated

Login

Don't have an account? Register now (free) for customized features, flight alerts, and more!